Bartlettsville, Indiana
Current Conditions -  °F | °C
As of 10:23 AM on Friday 24 Oct 2014 (Local Time) from KBMG Reporting Station
Light Rain Light Rain  
Wind Chill:   Ceiling: 2800
Heat Index:   Visibility: 10mi
Dew Point:   Wind: 0mph
Humidity: 90%   Direction: NA
Pressure: 30.13"   Gusts: NA
Location:  38.8737°N, 86.4563°W
Report Text: KBMG 241423Z 00000KT 10SM -RA BKN028 OVC090 09/08 A3013 RMK AO2 P0000 T00940078
Loading
Personal Weather Stations






























Interactive Weather Map
Tropical Storm Tracking
New forecast layout! Learn more

10-Day Weather Forecast

Advertisements
Track Severe Weather on mobile